createdAt,value
2019-04-23T00:00:03.423Z,37.96
2019-04-23T00:02:24.143Z,37.27
2019-04-23T00:04:54.177Z,37.39
2019-04-23T00:07:35.691Z,36.99
2019-04-23T00:10:03.428Z,36.74
2019-04-23T00:12:38.959Z,35.97
2019-04-23T00:17:37.134Z,35.38
2019-04-23T00:20:09.863Z,35.29
2019-04-23T00:22:44.891Z,36.06
2019-04-23T00:25:33.988Z,35.38
2019-04-23T00:27:50.272Z,35.18
2019-04-23T00:30:18.847Z,35.41
2019-04-23T00:32:48.084Z,35.64
2019-04-23T00:35:18.754Z,35.60
2019-04-23T00:37:55.151Z,35.46
2019-04-23T00:40:27.917Z,35.04
2019-04-23T00:43:02.079Z,35.12
2019-04-23T00:48:11.306Z,36.59
2019-04-23T00:53:04.530Z,36.63
2019-04-23T00:58:12.860Z,37.19
2019-04-23T01:03:12.550Z,36.38
2019-04-23T01:05:41.174Z,36.99
2019-04-23T01:08:18.585Z,36.36
2019-04-23T01:11:20.026Z,36.66
2019-04-23T01:13:47.503Z,36.29
2019-04-23T01:16:11.712Z,36.07
2019-04-23T01:18:51.466Z,36.04
2019-04-23T01:21:01.085Z,35.93
2019-04-23T01:23:42.614Z,36.46
2019-04-23T01:26:32.995Z,37.11
2019-04-23T01:29:06.986Z,37.02
2019-04-23T01:31:33.117Z,37.62
2019-04-23T01:34:13.469Z,37.01
2019-04-23T01:36:35.966Z,37.10
2019-04-23T01:39:23.118Z,37.15
2019-04-23T01:41:50.663Z,36.80
2019-04-23T01:44:21.828Z,37.04
2019-04-23T01:49:31.198Z,36.86
2019-04-23T01:54:25.576Z,36.81
2019-04-23T01:57:06.303Z,36.68
2019-04-23T01:59:31.877Z,36.40
2019-04-23T02:02:06.828Z,36.83
2019-04-23T02:04:34.623Z,37.09
2019-04-23T02:07:06.553Z,37.28
2019-04-23T02:09:43.441Z,37.66
2019-04-23T02:12:11.437Z,38.40
2019-04-23T02:14:43.584Z,38.79
2019-04-23T02:17:34.063Z,38.89
2019-04-23T02:19:46.726Z,38.57
2019-04-23T02:22:27.987Z,39.26
2019-04-23T02:24:59.694Z,39.08
2019-04-23T02:27:19.314Z,38.52
2019-04-23T02:32:29.706Z,38.43
2019-04-23T02:35:09.661Z,38.36
2019-04-23T02:37:45.930Z,37.80
2019-04-23T02:40:14.210Z,37.85
2019-04-23T02:42:51.875Z,37.96
2019-04-23T02:48:03.383Z,37.86
2019-04-23T02:50:34.909Z,37.96
2019-04-23T02:55:41.475Z,38.10
2019-04-23T02:57:44.124Z,38.16
2019-04-23T03:03:01.700Z,38.31
2019-04-23T03:05:24.515Z,38.22
2019-04-23T03:07:53.277Z,38.17
2019-04-23T03:10:32.467Z,38.37
2019-04-23T03:13:01.612Z,38.19
2019-04-23T03:18:21.012Z,38.07
2019-04-23T03:23:50.059Z,37.97
2019-04-23T03:29:06.535Z,37.94
2019-04-23T03:33:08.546Z,37.98
2019-04-23T03:34:02.877Z,38.58
2019-04-23T03:38:48.691Z,38.68
2019-04-23T03:48:51.153Z,38.41
2019-04-23T03:51:28.771Z,38.50
2019-04-23T03:54:23.475Z,38.72
2019-04-23T03:59:03.511Z,39.11
2019-04-23T04:01:58.132Z,39.22
2019-04-23T04:04:20.233Z,39.41
2019-04-23T04:06:43.713Z,39.38
2019-04-23T04:09:24.153Z,39.59
2019-04-23T04:11:29.184Z,39.96
2019-04-23T04:14:30.095Z,40.04
2019-04-23T04:19:24.693Z,40.29
2019-04-23T04:24:27.523Z,40.35
2019-04-23T04:26:59.461Z,40.31
2019-04-23T04:29:39.727Z,40.20
2019-04-23T04:39:40.342Z,40.57
2019-04-23T04:42:10.288Z,40.38
2019-04-23T04:44:41.136Z,40.90
2019-04-23T04:49:50.940Z,40.81
2019-04-23T04:54:30.835Z,41.27
2019-04-23T04:57:20.867Z,41.33
2019-04-23T05:00:06.745Z,41.14
2019-04-23T05:02:27.353Z,41.07
2019-04-23T05:04:55.952Z,41.33
2019-04-23T05:07:40.160Z,41.39
2019-04-23T05:10:07.374Z,41.34
2019-04-23T05:20:12.862Z,41.32
2019-04-23T05:22:52.625Z,41.56
2019-04-23T05:25:10.976Z,41.33
2019-04-23T05:27:56.804Z,41.19
2019-04-23T05:30:23.029Z,41.32
2019-04-23T05:32:52.033Z,41.30
2019-04-23T05:35:40.684Z,41.13
2019-04-23T05:40:37.248Z,41.24
2019-04-23T05:42:52.169Z,41.52
2019-04-23T05:45:30.235Z,41.59
2019-04-23T05:48:09.902Z,41.56
2019-04-23T05:50:40.866Z,41.71
2019-04-23T05:53:07.727Z,41.29
2019-04-23T05:55:34.351Z,41.63
2019-04-23T05:58:15.375Z,41.08
2019-04-23T06:00:51.522Z,41.04
2019-04-23T06:06:01.250Z,40.96
2019-04-23T06:08:25.560Z,40.80
2019-04-23T06:11:00.878Z,40.67
2019-04-23T06:13:26.040Z,40.69
2019-04-23T06:15:58.167Z,40.38
2019-04-23T06:18:30.489Z,40.03
2019-04-23T06:21:06.830Z,39.89
2019-04-23T06:23:38.160Z,39.97
2019-04-23T06:26:19.228Z,39.53
2019-04-23T06:28:46.687Z,39.56
2019-04-23T06:31:15.201Z,39.58
2019-04-23T06:33:47.983Z,39.63
2019-04-23T06:36:21.930Z,39.45
2019-04-23T06:41:23.910Z,39.65
2019-04-23T06:44:08.815Z,39.53
2019-04-23T06:46:28.687Z,39.46
2019-04-23T06:49:00.853Z,39.24
2019-04-23T06:51:34.892Z,39.03
2019-04-23T06:54:04.891Z,39.21
2019-04-23T06:56:43.320Z,39.00
2019-04-23T06:59:12.879Z,39.28
2019-04-23T07:01:51.056Z,39.02
2019-04-23T07:04:15.253Z,38.85
2019-04-23T07:06:58.202Z,38.96
2019-04-23T07:12:05.316Z,39.01
2019-04-23T07:14:26.129Z,39.08
2019-04-23T07:16:52.807Z,39.03
2019-04-23T07:22:03.300Z,38.70
2019-04-23T07:24:28.689Z,39.00
2019-04-23T07:26:55.910Z,39.11
2019-04-23T07:29:31.397Z,38.95
2019-04-23T07:32:05.692Z,38.75
2019-04-23T07:34:41.942Z,39.11
2019-04-23T07:37:22.953Z,38.80
2019-04-23T07:39:58.604Z,38.92
2019-04-23T07:42:38.364Z,38.81
2019-04-23T07:44:59.444Z,39.07
2019-04-23T07:50:09.856Z,38.58
2019-04-23T07:52:35.567Z,38.47
2019-04-23T07:57:34.057Z,38.30
2019-04-23T08:00:27.604Z,38.36
2019-04-23T08:02:33.585Z,37.96
2019-04-23T08:05:21.549Z,37.76
2019-04-23T08:07:45.320Z,37.64
2019-04-23T08:10:17.014Z,37.56
2019-04-23T08:12:48.096Z,37.50
2019-04-23T08:15:23.069Z,37.41
2019-04-23T08:17:56.229Z,37.32
2019-04-23T08:20:22.983Z,37.51
2019-04-23T08:23:06.766Z,37.67
2019-04-23T08:25:35.497Z,37.47
2019-04-23T08:28:11.867Z,37.56
2019-04-23T08:30:42.417Z,37.53
2019-04-23T08:35:42.956Z,36.85
2019-04-23T08:38:21.169Z,37.19
2019-04-23T08:40:57.217Z,36.90
2019-04-23T08:43:31.488Z,36.54
2019-04-23T08:45:53.399Z,36.78
2019-04-23T08:48:27.815Z,36.87
2019-04-23T08:50:57.952Z,37.10
2019-04-23T08:53:37.637Z,36.84
2019-04-23T09:03:40.851Z,37.10
2019-04-23T09:06:10.754Z,36.86
2019-04-23T09:08:44.382Z,36.62
2019-04-23T09:11:33.596Z,36.72
2019-04-23T09:18:52.782Z,36.71
2019-04-23T09:21:22.560Z,36.93
2019-04-23T09:23:54.017Z,36.94
2019-04-23T09:26:26.104Z,36.44
2019-04-23T09:34:20.707Z,36.23
2019-04-23T09:39:52.234Z,36.58
2019-04-23T09:42:24.092Z,36.55
2019-04-23T09:45:03.690Z,36.44
2019-04-23T09:47:46.090Z,36.29
2019-04-23T09:50:15.684Z,36.39
2019-04-23T09:52:57.289Z,36.57
2019-04-23T09:57:55.595Z,36.41
2019-04-23T10:00:34.666Z,36.51
2019-04-23T10:02:45.701Z,36.72
2019-04-23T10:05:14.127Z,37.22
2019-04-23T10:07:44.143Z,37.12
2019-04-23T10:10:05.375Z,36.94
2019-04-23T10:12:35.911Z,36.91
2019-04-23T10:15:13.783Z,36.76
2019-04-23T10:17:40.296Z,36.85
2019-04-23T10:20:11.052Z,36.76
2019-04-23T10:22:42.226Z,36.55
2019-04-23T10:25:12.982Z,36.19
2019-04-23T10:27:43.367Z,36.22
2019-04-23T10:30:14.493Z,36.60
2019-04-23T10:32:45.296Z,36.77
2019-04-23T10:35:28.893Z,36.56
2019-04-23T10:37:56.555Z,36.79
2019-04-23T10:40:25.972Z,36.64
2019-04-23T10:42:54.375Z,37.08
2019-04-23T10:45:44.715Z,37.59
2019-04-23T10:51:09.067Z,37.21
2019-04-23T10:53:39.935Z,37.08
2019-04-23T10:56:11.329Z,36.87
2019-04-23T10:58:38.360Z,36.92
2019-04-23T11:01:16.413Z,37.03
2019-04-23T11:03:58.886Z,36.87
2019-04-23T11:06:23.515Z,36.41
2019-04-23T11:09:06.198Z,36.51
2019-04-23T11:11:40.743Z,36.52
2019-04-23T11:14:12.277Z,36.51
2019-04-23T11:16:49.258Z,36.29
2019-04-23T11:21:42.839Z,36.31
2019-04-23T11:24:27.511Z,35.63
2019-04-23T11:29:22.549Z,36.17
2019-04-23T11:31:58.329Z,36.07
2019-04-23T11:34:47.824Z,36.49
2019-04-23T11:39:31.846Z,35.53
2019-04-23T11:42:06.660Z,35.65
2019-04-23T11:44:36.504Z,36.02
2019-04-23T11:47:07.768Z,36.05
2019-04-23T11:52:29.093Z,36.01
2019-04-23T11:54:39.021Z,36.10
2019-04-23T11:57:29.842Z,35.91
2019-04-23T11:59:47.322Z,35.98
2019-04-23T12:02:31.122Z,36.08
2019-04-23T12:05:20.802Z,35.91
2019-04-23T12:07:41.363Z,35.93
2019-04-23T12:10:31.677Z,35.79
2019-04-23T12:12:49.533Z,35.55
2019-04-23T12:15:32.671Z,35.22
2019-04-23T12:18:04.872Z,34.46
2019-04-23T12:20:33.641Z,33.92
2019-04-23T12:23:28.181Z,33.86
2019-04-23T12:25:34.095Z,33.54
2019-04-23T12:27:59.568Z,33.64
2019-04-23T12:30:42.077Z,34.27
2019-04-23T12:33:11.594Z,34.18
2019-04-23T12:35:39.048Z,34.24
2019-04-23T12:38:16.886Z,33.89
2019-04-23T12:40:46.030Z,34.11
2019-04-23T12:45:47.001Z,34.41
2019-04-23T12:48:33.825Z,34.64
2019-04-23T12:51:09.421Z,35.10
2019-04-23T12:56:16.984Z,35.39
2019-04-23T12:58:27.635Z,35.47
2019-04-23T13:00:58.225Z,35.54
2019-04-23T13:03:37.235Z,35.72
2019-04-23T13:05:59.181Z,35.36
2019-04-23T13:08:46.618Z,35.12
2019-04-23T13:11:15.233Z,34.87
2019-04-23T13:13:48.858Z,34.44
2019-04-23T13:16:18.129Z,34.21
2019-04-23T13:19:14.446Z,34.46
2019-04-23T13:21:38.432Z,33.77
2019-04-23T13:23:49.433Z,34.15
2019-04-23T13:26:17.821Z,33.64
2019-04-23T13:28:52.513Z,34.07
2019-04-23T13:31:30.067Z,34.39
2019-04-23T13:33:58.049Z,34.11
2019-04-23T13:39:10.045Z,34.28
2019-04-23T13:41:32.402Z,34.38
2019-04-23T13:44:04.549Z,34.21
2019-04-23T13:46:34.465Z,34.68
2019-04-23T13:49:18.434Z,34.88
2019-04-23T13:52:12.802Z,35.14
2019-04-23T13:54:44.072Z,35.23
2019-04-23T13:57:23.921Z,35.27
2019-04-23T13:59:29.034Z,35.02
2019-04-23T14:01:46.937Z,34.50
2019-04-23T14:07:23.384Z,33.74
2019-04-23T14:10:00.574Z,33.46
2019-04-23T14:12:24.183Z,33.67
2019-04-23T14:15:04.276Z,33.46
2019-04-23T14:17:38.108Z,33.84
2019-04-23T14:20:03.813Z,33.72
2019-04-23T14:27:52.126Z,34.09
2019-04-23T14:30:23.971Z,34.58
2019-04-23T14:32:45.449Z,34.75
2019-04-23T14:38:09.427Z,34.92
2019-04-23T14:40:26.622Z,35.07
2019-04-23T14:43:07.394Z,35.25
2019-04-23T14:45:42.586Z,35.55
2019-04-23T14:53:16.624Z,35.85
2019-04-23T15:00:54.061Z,35.94
2019-04-23T15:03:28.744Z,36.08
2019-04-23T15:06:05.035Z,36.13
2019-04-23T15:08:28.731Z,36.34
2019-04-23T15:11:06.813Z,36.18
2019-04-23T15:13:28.265Z,36.21
2019-04-23T15:16:07.965Z,36.09
2019-04-23T15:18:44.758Z,36.14
2019-04-23T15:21:37.648Z,36.01
2019-04-23T15:28:31.510Z,36.18
2019-04-23T15:31:33.210Z,36.24
2019-04-23T15:39:13.870Z,36.21
2019-04-23T15:41:39.640Z,36.01
2019-04-23T15:44:08.620Z,36.06
2019-04-23T15:49:19.834Z,35.53
2019-04-23T15:51:47.441Z,35.36
2019-04-23T15:54:19.661Z,34.93
2019-04-23T15:59:24.354Z,34.12
2019-04-23T16:01:39.544Z,33.70
2019-04-23T16:03:51.744Z,33.57
2019-04-23T16:06:25.404Z,33.28
2019-04-23T16:09:33.816Z,33.54
2019-04-23T16:11:47.376Z,33.17
2019-04-23T16:17:04.523Z,32.27
2019-04-23T16:19:53.440Z,31.88
2019-04-23T16:22:20.225Z,31.69
2019-04-23T16:24:55.525Z,31.47
2019-04-23T16:27:14.961Z,31.38
2019-04-23T16:30:09.720Z,31.20
2019-04-23T16:32:57.866Z,31.46
2019-04-23T16:38:10.163Z,31.80
2019-04-23T16:40:33.101Z,32.31
2019-04-23T16:43:07.077Z,32.81
2019-04-23T16:48:19.953Z,34.08
2019-04-23T16:50:41.716Z,34.75
2019-04-23T16:55:53.375Z,35.22
2019-04-23T16:58:21.872Z,35.47
2019-04-23T17:00:51.630Z,35.40
2019-04-23T17:13:30.887Z,36.71
2019-04-23T17:16:06.715Z,37.05
2019-04-23T17:18:31.289Z,37.12
2019-04-23T17:21:10.229Z,37.47
2019-04-23T17:26:17.178Z,37.85
2019-04-23T17:28:35.893Z,38.32
2019-04-23T17:38:56.866Z,39.36
2019-04-23T17:41:41.722Z,39.99
2019-04-23T17:44:18.052Z,40.58
2019-04-23T17:46:47.039Z,41.16
2019-04-23T17:51:48.836Z,42.95
2019-04-23T17:54:19.414Z,43.18
2019-04-23T17:59:28.324Z,44.61
2019-04-23T18:02:21.154Z,44.62
2019-04-23T18:04:36.613Z,44.99
2019-04-23T18:07:23.185Z,45.36
2019-04-23T18:09:57.058Z,45.87
2019-04-23T18:12:14.729Z,46.41
2019-04-23T18:14:27.068Z,46.39
2019-04-23T18:17:13.063Z,46.76
2019-04-23T18:19:53.570Z,47.44
2019-04-23T18:22:22.118Z,47.94
2019-04-23T18:25:09.582Z,48.21
2019-04-23T18:27:48.342Z,48.67
2019-04-23T18:30:35.219Z,48.46
2019-04-23T18:35:40.461Z,49.35
2019-04-23T18:43:32.716Z,50.37
2019-04-23T18:51:03.716Z,50.55
2019-04-23T18:53:43.545Z,50.86
2019-04-23T18:58:48.543Z,51.52
2019-04-23T19:01:11.319Z,52.10
2019-04-23T19:04:07.174Z,51.59
2019-04-23T19:06:37.740Z,51.65
2019-04-23T19:17:33.610Z,52.60
2019-04-23T19:27:18.373Z,52.84
2019-04-23T19:29:52.021Z,53.26
2019-04-23T19:32:33.581Z,53.20
2019-04-23T19:37:18.361Z,53.74
2019-04-23T19:40:04.819Z,53.71
2019-04-23T19:42:18.024Z,53.95
2019-04-23T19:44:54.444Z,54.26
2019-04-23T19:47:38.538Z,54.48
2019-04-23T19:50:02.104Z,54.46
2019-04-23T19:52:52.134Z,54.56
2019-04-23T19:54:58.495Z,54.84
2019-04-23T19:57:42.735Z,55.26
2019-04-23T20:00:13.076Z,55.46
2019-04-23T20:02:58.201Z,55.44
2019-04-23T20:05:10.897Z,55.63
2019-04-23T20:07:54.865Z,55.88
2019-04-23T20:10:12.369Z,55.98
2019-04-23T20:13:01.524Z,55.76
2019-04-23T20:15:08.282Z,56.34
2019-04-23T20:17:51.603Z,56.29
2019-04-23T20:20:26.513Z,56.25
2019-04-23T20:22:56.771Z,56.35
2019-04-23T20:25:53.720Z,56.19
2019-04-23T20:36:05.588Z,57.04
2019-04-23T20:40:56.921Z,57.30
2019-04-23T20:43:27.237Z,57.65
2019-04-23T20:45:59.992Z,57.83
2019-04-23T20:48:32.509Z,57.97
2019-04-23T20:51:20.326Z,58.44
2019-04-23T20:53:38.274Z,58.71
2019-04-23T20:58:43.927Z,59.09
2019-04-23T21:01:22.268Z,59.72
2019-04-23T21:03:51.570Z,59.78
2019-04-23T21:09:10.035Z,59.55
2019-04-23T21:11:32.651Z,59.85
2019-04-23T21:14:03.318Z,60.22
2019-04-23T21:19:10.123Z,60.44
2019-04-23T21:21:26.241Z,60.49
2019-04-23T21:23:55.068Z,60.51
2019-04-23T21:26:35.782Z,60.65
2019-04-23T21:29:02.169Z,60.62
2019-04-23T21:31:48.606Z,60.78
2019-04-23T21:34:35.360Z,60.83
2019-04-23T21:36:45.705Z,61.06
2019-04-23T21:42:14.698Z,61.08
2019-04-23T21:44:28.884Z,61.06
2019-04-23T21:47:04.679Z,61.23
2019-04-23T21:52:05.021Z,61.57
2019-04-23T21:54:39.503Z,61.78
2019-04-23T21:57:19.534Z,61.72
2019-04-23T21:59:44.663Z,61.52
2019-04-23T22:02:14.981Z,61.37
2019-04-23T22:04:44.998Z,61.50
2019-04-23T22:07:15.775Z,61.58
2019-04-23T22:09:50.425Z,61.75
2019-04-23T22:17:27.216Z,62.49
2019-04-23T22:20:03.398Z,62.67
2019-04-23T22:22:32.035Z,62.86
2019-04-23T22:24:58.618Z,63.28
2019-04-23T22:27:26.092Z,63.26
2019-04-23T22:29:59.530Z,62.98
2019-04-23T22:32:40.451Z,62.97
2019-04-23T22:35:07.828Z,63.23
2019-04-23T22:37:42.431Z,62.70
2019-04-23T22:40:09.439Z,63.03
2019-04-23T22:43:07.348Z,62.70
2019-04-23T22:45:16.067Z,62.67
2019-04-23T22:47:47.978Z,63.16
2019-04-23T22:50:19.098Z,62.99
2019-04-23T22:52:53.857Z,62.95
2019-04-23T22:55:12.718Z,63.18
2019-04-23T23:00:30.039Z,63.79
2019-04-23T23:03:06.373Z,63.96
2019-04-23T23:05:50.657Z,63.82
2019-04-23T23:08:11.394Z,63.93
2019-04-23T23:10:46.457Z,63.78
2019-04-23T23:13:16.499Z,64.13
2019-04-23T23:15:51.333Z,64.11
2019-04-23T23:20:55.861Z,64.79
2019-04-23T23:23:21.047Z,64.79
2019-04-23T23:31:04.019Z,64.77
2019-04-23T23:33:23.366Z,64.94
2019-04-23T23:35:58.868Z,64.85
2019-04-23T23:38:33.493Z,64.62
2019-04-23T23:41:12.925Z,64.62
2019-04-23T23:43:30.216Z,64.77
2019-04-23T23:46:13.767Z,65.34
2019-04-23T23:48:34.993Z,65.37
2019-04-23T23:52:21.747Z,65.26
2019-04-23T23:54:52.648Z,65.10
2019-04-23T23:57:23.365Z,66.06
